Terminal Aerodrome Forecast
Issued by NWS Quad Cities IA IL

Home | Current Version | Previous Version | Text Only | Print | Product List | Glossary On
Versions: 1 2 3 4 5 6 7 8 9 10 11 12 13 14 15 16 17
000
FTUS43 KDVN 131700
TAFDBQ
TAF
KDBQ 131720Z 1318/1418 05010KT 4SM -SHRA BR SCT008 OVC035
     FM131900 02012KT 1 1/2SM RA BR BKN008
     FM140100 34015G25KT 2SM -RA BR OVC004
     FM140900 33022G29KT 3SM -RASN BR OVC010
     FM141300 35020G30KT P6SM VCSH OVC015=

USA.gov is the U.S. government's official web portal to all federal, state and local government web resources and services.